Time;durP1;ratioP1;P1;durP2;ratioP2;P2;SDS_P1;SDS_P2;PMS_P1;PMS_P2;Temp;Humidity;BMP_temperature;BMP_pressure;BME280_temperature;BME280_humidity;BME280_pressure;Samples;Min_cycle;Max_cycle;Signal;HPM_P1;HPM_P2
2023/12/09 00:02:50;;;;;;;13.95;5.70;;;;;;;-27.29;52.97;99059.88;6238190;28;20053;-69
2023/12/09 00:05:51;;;;;;;13.88;6.38;;;;;;;-27.25;53.68;99062.03;6271628;28;20048;-70
2023/12/09 00:08:53;;;;;;;9.73;4.93;;;;;;;-27.22;53.75;99061.50;6271255;28;20430;-69
2023/12/09 00:11:57;;;;;;;7.60;5.18;;;;;;;-27.21;53.59;99057.44;6271703;28;20143;-69
2023/12/09 00:14:59;;;;;;;11.02;5.50;;;;;;;-27.24;54.07;99061.31;6271744;28;20060;-69
2023/12/09 00:18:00;;;;;;;9.23;4.43;;;;;;;-27.24;53.04;99063.78;6253872;28;20049;-70
2023/12/09 00:21:06;;;;;;;8.25;5.10;;;;;;;-27.30;54.15;99063.09;6272112;28;20036;-68
2023/12/09 00:24:09;;;;;;;8.27;4.88;;;;;;;-27.32;54.17;99071.91;6271856;28;20048;-70
2023/12/09 00:27:13;;;;;;;9.35;4.72;;;;;;;-27.31;53.12;99076.19;6270807;28;20037;-69
2023/12/09 00:30:17;;;;;;;11.88;4.70;;;;;;;-27.38;53.37;99058.84;6271936;28;20060;-70
2023/12/09 00:33:19;;;;;;;5.28;4.70;;;;;;;-27.31;54.10;99076.19;6271251;28;20053;-69
2023/12/09 00:36:23;;;;;;;7.00;4.70;;;;;;;-27.33;53.81;99057.78;6271596;28;20048;-69
2023/12/09 00:39:25;;;;;;;9.48;5.15;;;;;;;-27.27;53.26;99069.97;6271217;28;20049;-69
2023/12/09 00:42:26;;;;;;;9.45;4.40;;;;;;;-27.39;53.44;99052.13;6271386;28;20071;-69
2023/12/09 00:45:29;;;;;;;13.55;4.55;;;;;;;-27.29;53.69;99069.78;6270394;28;20087;-69
2023/12/09 00:48:33;;;;;;;7.90;4.30;;;;;;;-27.31;53.96;99070.31;6271064;28;20513;-69
2023/12/09 00:51:37;;;;;;;8.23;3.38;;;;;;;-27.30;53.16;99063.09;6253817;28;20417;-69
2023/12/09 00:54:39;;;;;;;10.45;4.63;;;;;;;-27.26;53.56;99070.13;6270858;28;20059;-70
2023/12/09 00:57:40;;;;;;;10.32;4.32;;;;;;;-27.29;54.26;99069.78;6270027;28;20060;-68
2023/12/09 01:00:42;;;;;;;9.68;5.40;;;;;;;-27.27;54.30;99063.44;6270442;28;20056;-69
2023/12/09 01:03:46;;;;;;;11.00;5.32;;;;;;;-27.27;54.37;99060.97;6270337;28;20064;-69
2023/12/09 01:06:47;;;;;;;6.88;3.85;;;;;;;-27.26;53.80;99070.13;6270114;28;20060;-69
2023/12/09 01:09:52;;;;;;;8.80;4.63;;;;;;;-27.26;54.44;99079.16;6269579;28;20056;-69
2023/12/09 01:12:57;;;;;;;11.43;6.07;;;;;;;-27.35;54.32;99088.00;6269536;28;20485;-69
2023/12/09 01:15:58;;;;;;;8.15;5.28;;;;;;;-27.47;53.58;99083.41;6270128;28;20055;-69
2023/12/09 01:19:02;;;;;;;8.32;5.25;;;;;;;-27.48;53.38;99083.22;6252363;28;20056;-69
2023/12/09 01:22:04;;;;;;;8.27;5.55;;;;;;;-27.55;54.08;99074.22;6252330;28;20057;-69
2023/12/09 01:25:11;;;;;;;12.23;4.88;;;;;;;-27.50;53.34;99084.66;6270029;28;20235;-69
2023/12/09 01:28:12;;;;;;;14.43;5.95;;;;;;;-27.49;53.59;99083.94;6269524;28;20068;-69
2023/12/09 01:31:14;;;;;;;8.23;4.93;;;;;;;-27.47;54.38;99093.31;6269838;28;20422;-69
2023/12/09 01:34:16;;;;;;;12.68;5.85;;;;;;;-27.48;54.53;99081.66;6269718;28;20045;-69
2023/12/09 01:37:17;;;;;;;9.85;4.65;;;;;;;-27.40;53.43;99089.06;6251611;28;20102;-69
2023/12/09 01:40:19;;;;;;;10.48;5.07;;;;;;;-27.40;53.67;99094.91;6268909;28;20045;-68
2023/12/09 01:43:23;;;;;;;6.65;4.05;;;;;;;-27.46;54.34;99095.06;6269970;28;20045;-69
2023/12/09 01:46:25;;;;;;;10.35;5.60;;;;;;;-27.46;53.65;99094.19;6269326;28;20060;-69
2023/12/09 01:49:29;;;;;;;13.65;4.65;;;;;;;-27.45;54.34;99095.97;6268860;28;20064;-69
2023/12/09 01:52:32;;;;;;;12.23;4.85;;;;;;;-27.49;53.45;99094.72;6269146;28;20057;-69
2023/12/09 01:55:35;;;;;;;9.35;4.05;;;;;;;-27.52;53.56;99086.06;6269232;28;20060;-69
2023/12/09 01:58:40;;;;;;;10.93;5.22;;;;;;;-27.63;53.51;99079.00;6269058;28;20711;-68
2023/12/09 02:01:44;;;;;;;9.63;4.63;;;;;;;-27.53;53.58;99087.66;6251497;28;20056;-69
2023/12/09 02:04:45;;;;;;;10.07;4.50;;;;;;;-27.50;54.34;99092.09;6268861;28;20053;-70
2023/12/09 02:07:52;;;;;;;14.25;5.55;;;;;;;-27.50;54.12;99082.19;6268866;28;20049;-69
2023/12/09 02:11:16;;;;;;;16.50;6.95;;;;;;;-27.48;53.77;99085.69;6268850;28;20529;-69
2023/12/09 02:14:24;;;;;;;12.35;5.57;;;;;;;-27.46;53.65;99085.16;6268516;28;20048;-69
2023/12/09 02:17:34;;;;;;;15.20;7.13;;;;;;;-27.53;54.28;99082.72;6251700;28;20043;-69
2023/12/09 02:20:36;;;;;;;24.05;11.50;;;;;;;-27.44;54.22;99082.88;6268509;28;20056;-69
2023/12/09 02:23:39;;;;;;;19.73;7.43;;;;;;;-27.44;54.36;99080.41;6269191;28;20045;-70
2023/12/09 02:26:43;;;;;;;24.63;8.98;;;;;;;-27.42;53.21;99086.44;6269196;28;20036;-69
2023/12/09 02:30:14;;;;;;;19.90;8.10;;;;;;;-27.41;53.49;99087.31;6268637;28;20083;-69
2023/12/09 02:33:20;;;;;;;14.27;6.68;;;;;;;-27.43;53.72;99081.28;6269042;28;20419;-69
2023/12/09 02:36:26;;;;;;;16.77;7.65;;;;;;;-27.41;54.08;99092.25;6268775;28;20425;-69
2023/12/09 02:39:30;;;;;;;14.85;8.20;;;;;;;-27.43;53.60;99092.06;6268862;28;20041;-69
2023/12/09 02:42:34;;;;;;;12.25;5.95;;;;;;;-27.57;53.56;99069.81;6269381;28;20052;-69
2023/12/09 02:45:39;;;;;;;17.73;7.20;;;;;;;-27.55;53.70;99086.59;6269112;28;20135;-69
2023/12/09 02:48:41;;;;;;;21.50;6.95;;;;;;;-27.60;53.81;99085.16;6267982;28;20049;-71
2023/12/09 02:51:45;;;;;;;13.68;6.38;;;;;;;-27.56;54.01;99107.09;6273466;28;20045;-69
2023/12/09 02:54:47;;;;;;;;;;;;;;;-27.52;53.43;99109.22;6273543;28;20214;-69
2023/12/09 02:57:50;;;;;;;6.80;4.63;;;;;;;-27.56;54.33;99096.31;6256173;28;19921;-70
2023/12/09 03:00:52;;;;;;;15.20;6.10;;;;;;;-27.53;53.87;99101.63;6273123;28;20510;-69
2023/12/09 03:03:56;;;;;;;21.02;7.50;;;;;;;-27.51;54.13;99115.94;6273125;28;20053;-70
2023/12/09 03:07:04;;;;;;;12.65;6.35;;;;;;;-27.51;53.52;99115.03;6273183;28;20049;-69
2023/12/09 03:10:08;;;;;;;24.60;9.05;;;;;;;-27.51;54.38;99110.09;6254909;28;20053;-69
2023/12/09 03:13:10;;;;;;;23.17;7.80;;;;;;;-27.49;54.39;99118.59;6273284;28;20053;-68
2023/12/09 03:16:12;;;;;;;18.50;7.03;;;;;;;-27.48;53.76;99120.34;6272750;28;20051;-70
2023/12/09 03:19:15;;;;;;;28.88;11.52;;;;;;;-27.44;53.79;99131.50;6273117;28;20477;-70
2023/12/09 03:22:16;;;;;;;28.58;10.07;;;;;;;-27.45;53.95;99130.63;6273019;28;20060;-70
2023/12/09 03:25:18;;;;;;;34.97;11.77;;;;;;;-27.46;53.93;99129.72;6273419;28;20078;-69
2023/12/09 03:28:23;;;;;;;24.00;9.77;;;;;;;-27.40;54.79;99131.13;6272844;28;20421;-69
2023/12/09 03:31:24;;;;;;;58.47;20.67;;;;;;;-27.37;54.19;99139.78;6272329;28;20056;-70
2023/12/09 03:34:26;;;;;;;23.20;9.50;;;;;;;-27.37;54.82;99149.69;6272440;28;20053;-70
2023/12/09 03:37:27;;;;;;;29.42;9.57;;;;;;;-27.40;54.92;99148.47;6272515;28;20060;-70
2023/12/09 03:40:31;;;;;;;29.55;10.95;;;;;;;-27.48;54.20;99150.03;6272625;28;20037;-69
2023/12/09 03:43:35;;;;;;;27.50;11.00;;;;;;;-27.47;54.18;99151.81;6272697;28;20037;-69
2023/12/09 03:46:37;;;;;;;34.63;12.27;;;;;;;-27.39;54.39;99153.59;6254410;28;20064;-69
2023/12/09 03:49:38;;;;;;;31.60;14.55;;;;;;;-27.37;54.93;99148.81;6272075;28;20449;-69
2023/12/09 03:52:44;;;;;;;30.80;10.63;;;;;;;-27.33;54.65;99155.91;6272739;28;20048;-70
2023/12/09 03:55:50;;;;;;;39.17;17.05;;;;;;;-27.29;54.37;99158.91;6272044;28;20045;-70
2023/12/09 03:58:54;;;;;;;30.75;11.73;;;;;;;-27.49;55.08;99130.97;6254638;28;20052;-69
2023/12/09 04:01:58;;;;;;;27.05;11.02;;;;;;;-27.29;54.04;99166.31;6271320;28;20425;-71
2023/12/09 04:04:59;;;;;;;15.20;8.32;;;;;;;-27.27;54.21;99159.97;6253717;28;20049;-70
2023/12/09 04:08:01;;;;;;;27.48;11.68;;;;;;;-27.32;54.93;99160.16;6271469;28;20442;-70
2023/12/09 04:11:04;;;;;;;15.50;5.50;;;;;;;-27.18;54.29;99176.59;6254474;28;20156;-69
2023/12/09 04:14:06;;;;;;;33.05;13.02;;;;;;;-27.16;54.64;99180.16;6271270;28;20052;-69
2023/12/09 04:17:07;;;;;;;25.00;12.95;;;;;;;-27.17;54.44;99178.38;6271530;28;20045;-69
2023/12/09 04:20:10;;;;;;;42.43;16.57;;;;;;;-27.11;55.04;99188.94;6270794;28;20545;-70
2023/12/09 04:23:15;;;;;;;30.75;12.35;;;;;;;-27.06;54.44;99188.78;6271142;28;20045;-69
2023/12/09 04:26:23;;;;;;;23.92;10.85;;;;;;;-26.98;54.79;99202.03;6271121;28;20045;-69
2023/12/09 04:29:30;;;;;;;27.85;12.27;;;;;;;-26.92;53.97;99201.88;6272076;28;20048;-69
2023/12/09 04:32:37;;;;;;;33.17;12.32;;;;;;;-26.78;54.98;99196.91;6271876;28;20045;-69
2023/12/09 04:35:41;;;;;;;27.70;10.90;;;;;;;-26.57;53.90;99203.47;6271600;28;20506;-70
2023/12/09 04:38:45;;;;;;;24.35;11.80;;;;;;;-26.39;54.26;99198.06;6270633;28;20064;-70
2023/12/09 04:41:49;;;;;;;17.23;8.93;;;;;;;-26.24;53.61;99185.66;6254461;28;20041;-70
2023/12/09 04:44:51;;;;;;;31.05;11.60;;;;;;;-26.06;54.23;99200.13;6252917;28;20048;-69
2023/12/09 04:47:52;;;;;;;39.70;16.17;;;;;;;-25.94;53.50;99196.53;6253684;28;20099;-70
2023/12/09 04:51:00;;;;;;;40.10;15.63;;;;;;;-25.91;53.33;99196.88;6271107;28;20040;-69
2023/12/09 04:54:04;;;;;;;37.97;17.08;;;;;;;-25.83;53.43;99202.72;6270828;28;20052;-70
2023/12/09 04:57:08;;;;;;;29.40;12.18;;;;;;;-25.78;53.38;99196.63;6270069;28;21120;-70
2023/12/09 05:00:12;;;;;;;33.03;13.52;;;;;;;-25.81;53.68;99191.34;6270747;28;20045;-69
2023/12/09 05:03:20;;;;;;;39.88;12.98;;;;;;;-25.75;53.72;99211.88;6271235;28;20056;-71
2023/12/09 05:06:21;;;;;;;18.00;10.35;;;;;;;-25.77;53.40;99198.41;6269666;28;20056;-69
2023/12/09 05:09:25;;;;;;;18.10;9.30;;;;;;;-25.63;53.40;99204.91;6270490;28;20498;-69
2023/12/09 05:12:30;;;;;;;20.83;10.00;;;;;;;-25.55;53.09;99219.03;6270153;28;20083;-71
2023/12/09 05:15:32;;;;;;;18.02;8.93;;;;;;;-25.39;53.07;99223.22;6269316;28;20053;-69
2023/12/09 05:18:36;;;;;;;23.27;9.65;;;;;;;-25.23;53.01;99217.63;6270120;28;20394;-69
2023/12/09 05:21:37;;;;;;;25.42;9.52;;;;;;;-25.22;53.45;99186.22;6269654;28;20049;-69
2023/12/09 05:24:42;;;;;;;17.10;9.00;;;;;;;-24.83;52.47;99226.03;6269535;28;20060;-71
2023/12/09 05:27:44;;;;;;;16.38;8.82;;;;;;;-24.83;52.64;99226.03;6269670;28;20135;-71
2023/12/09 05:30:46;;;;;;;20.48;9.23;;;;;;;-24.82;52.83;99227.78;6270128;28;20053;-70
2023/12/09 05:33:48;;;;;;;18.25;9.45;;;;;;;-24.72;52.70;99228.06;6269501;28;20056;-69
2023/12/09 05:36:54;;;;;;;23.58;13.43;;;;;;;-24.57;52.85;99222.25;6252739;28;20048;-70
2023/12/09 05:39:58;;;;;;;29.38;13.88;;;;;;;-24.42;52.60;99214.66;6270095;28;20056;-72
2023/12/09 05:43:02;;;;;;;22.95;10.73;;;;;;;-24.31;52.45;99221.63;6269793;28;20045;-70
2023/12/09 05:46:07;;;;;;;23.33;12.05;;;;;;;-24.21;52.98;99226.88;6269604;28;20421;-70
2023/12/09 05:49:10;;;;;;;25.83;12.25;;;;;;;-24.08;52.56;99227.47;6269880;28;20041;-71
2023/12/09 05:52:16;;;;;;;41.13;15.05;;;;;;;-24.02;52.50;99231.34;6252101;28;20041;-70
2023/12/09 05:55:17;;;;;;;27.08;12.75;;;;;;;-24.11;52.55;99207.25;6275169;28;20436;-70
2023/12/09 05:58:19;;;;;;;26.23;12.50;;;;;;;-23.88;52.62;99221.22;6293985;28;20434;-69
2023/12/09 06:01:24;;;;;;;21.35;11.00;;;;;;;-23.72;52.75;99227.06;6294226;28;20056;-72
2023/12/09 06:04:32;;;;;;;20.20;9.25;;;;;;;-23.55;52.59;99220.44;6294272;28;20037;-70
2023/12/09 06:07:36;;;;;;;22.75;11.85;;;;;;;-23.44;53.32;99232.41;6293609;28;20139;-71
2023/12/09 06:10:43;;;;;;;22.50;11.90;;;;;;;-23.37;52.46;99214.88;6294336;28;20040;-71
2023/12/09 06:13:44;;;;;;;24.50;11.18;;;;;;;-23.24;53.03;99217.88;6294095;28;20044;-70
2023/12/09 06:16:51;;;;;;;33.13;12.15;;;;;;;-23.09;52.53;99227.66;6294076;28;20045;-70
2023/12/09 06:19:57;;;;;;;40.88;16.88;;;;;;;-22.99;52.69;99235.34;6292907;28;20056;-70
2023/12/09 06:23:04;;;;;;;43.05;18.02;;;;;;;-22.87;52.22;99235.69;6294470;28;20070;-71
2023/12/09 06:26:11;;;;;;;31.00;14.68;;;;;;;-22.76;52.60;99231.06;6293593;28;20053;-70
2023/12/09 06:29:16;;;;;;;41.15;16.55;;;;;;;-22.63;52.62;99225.72;6293176;28;20045;-70
2023/12/09 06:32:20;;;;;;;38.85;16.15;;;;;;;-22.48;52.29;99233.84;6293623;28;20150;-71
2023/12/09 06:35:21;;;;;;;30.10;14.95;;;;;;;-22.43;52.75;99222.72;6293617;28;20056;-70
2023/12/09 06:38:27;;;;;;;30.58;16.08;;;;;;;-22.27;52.33;99230.13;6292900;28;20045;-70
2023/12/09 06:41:28;;;;;;;37.73;16.07;;;;;;;-22.24;52.07;99211.34;6294069;28;20494;-70
2023/12/09 06:44:32;;;;;;;48.17;15.95;;;;;;;-21.96;52.41;99223.09;6293807;28;20036;-71
2023/12/09 06:47:34;;;;;;;38.15;15.45;;;;;;;-21.73;52.03;99222.84;6293537;28;20147;-70
2023/12/09 06:50:40;;;;;;;33.90;15.20;;;;;;;-21.55;52.09;99222.13;6293418;28;20048;-69
2023/12/09 06:53:47;;;;;;;41.13;17.27;;;;;;;-21.34;52.06;99221.69;6290628;28;20057;-70
2023/12/09 06:56:50;;;;;;;46.25;17.55;;;;;;;-21.16;51.75;99221.66;6268155;28;20073;-70
2023/12/09 06:59:52;;;;;;;45.53;16.70;;;;;;;-20.91;52.26;99220.75;6267979;28;20049;-71
2023/12/09 07:02:56;;;;;;;40.90;16.85;;;;;;;-20.65;52.43;99210.69;6267952;28;20511;-70
2023/12/09 07:06:04;;;;;;;43.00;17.20;;;;;;;-20.33;51.92;99214.34;6268535;28;20453;-70
2023/12/09 07:09:10;;;;;;;46.03;17.80;;;;;;;-20.05;51.75;99218.63;6267979;28;20136;-71
2023/12/09 07:12:12;;;;;;;46.40;16.63;;;;;;;-19.49;51.97;99216.94;6267533;28;20055;-70
2023/12/09 07:15:13;;;;;;;31.90;13.48;;;;;;;-15.07;49.13;99213.03;6268105;28;20491;-70
2023/12/09 07:18:17;;;;;;;54.30;20.25;;;;;;;-9.75;42.15;99212.28;6268600;28;20049;-71
2023/12/09 07:21:21;;;;;;;59.10;20.10;;;;;;;-5.59;37.42;99213.66;6268751;28;20425;-71
2023/12/09 07:24:26;;;;;;;47.78;19.83;;;;;;;-2.61;33.56;99210.78;6251243;28;20414;-70
2023/12/09 07:27:30;;;;;;;69.43;22.13;;;;;;;-0.49;31.93;99218.66;6267784;28;20053;-69
2023/12/09 07:30:34;;;;;;;63.63;17.88;;;;;;;1.19;31.17;99216.63;6268342;28;20036;-71
2023/12/09 07:33:44;;;;;;;52.58;18.10;;;;;;;2.58;30.28;99219.38;6268284;28;20037;-70
2023/12/09 07:36:51;;;;;;;54.70;16.98;;;;;;;3.72;29.48;99215.31;6271461;28;20049;-70
2023/12/09 07:39:53;;;;;;;48.22;14.32;;;;;;;4.58;28.92;99207.31;6271932;28;20102;-71
2023/12/09 07:42:58;;;;;;;31.73;12.20;;;;;;;5.40;27.92;99207.78;6272086;28;20501;-69
2023/12/09 07:46:01;;;;;;;24.20;9.63;;;;;;;6.25;27.04;99211.44;6272648;28;20419;-71
2023/12/09 07:49:05;;;;;;;24.25;9.18;;;;;;;7.11;25.94;99204.38;6272566;28;20053;-72
2023/12/09 07:52:10;;;;;;;17.52;8.35;;;;;;;7.69;24.59;99202.63;6272063;28;20502;-71
2023/12/09 07:55:11;;;;;;;14.98;8.40;;;;;;;8.10;24.15;99186.19;6272129;28;20503;-70
2023/12/09 07:58:17;;;;;;;21.45;8.07;;;;;;;8.47;23.07;99202.16;6272506;28;20421;-71
2023/12/09 08:01:26;;;;;;;15.45;8.23;;;;;;;8.94;22.31;99184.56;6272405;28;20671;-70
2023/12/09 08:04:30;;;;;;;17.35;9.38;;;;;;;9.44;21.50;99190.47;6271651;28;20052;-71
2023/12/09 08:07:39;;;;;;;21.20;11.68;;;;;;;9.81;20.78;99186.94;6272087;28;20490;-70
2023/12/09 08:10:40;;;;;;;17.30;10.20;;;;;;;9.94;20.37;99190.16;6272198;28;20119;-71
2023/12/09 08:13:45;;;;;;;17.20;9.30;;;;;;;10.04;19.90;99190.75;6271836;28;20045;-71
2023/12/09 08:16:49;;;;;;;20.17;11.05;;;;;;;9.98;19.79;99197.03;6271688;28;20037;-70
2023/12/09 08:19:56;;;;;;;21.38;11.85;;;;;;;10.07;19.77;99188.06;6253940;28;20079;-70
2023/12/09 08:23:07;;;;;;;21.52;10.05;;;;;;;10.18;18.70;99187.78;6253749;28;20049;-71
2023/12/09 08:26:16;;;;;;;16.85;8.93;;;;;;;10.24;18.17;99183.22;6270652;28;20052;-71
2023/12/09 08:29:21;;;;;;;15.88;7.82;;;;;;;10.39;18.81;99170.56;6270728;28;20490;-71
2023/12/09 08:32:26;;;;;;;13.75;7.20;;;;;;;10.50;18.37;99165.88;6270879;28;20048;-72
2023/12/09 08:35:34;;;;;;;17.55;6.97;;;;;;;10.98;17.80;99160.97;6270460;28;20043;-71
2023/12/09 08:38:41;;;;;;;13.63;7.15;;;;;;;11.40;17.58;99162.31;6271589;28;20045;-71
2023/12/09 08:41:43;;;;;;;14.93;7.05;;;;;;;11.17;17.08;99158.63;6270958;28;20045;-72
2023/12/09 08:44:47;;;;;;;11.80;6.35;;;;;;;11.02;17.37;99151.22;6270454;28;20057;-70
2023/12/09 08:47:48;;;;;;;13.63;6.82;;;;;;;10.97;16.84;99148.69;6252518;28;20049;-71
2023/12/09 08:50:53;;;;;;;19.75;8.18;;;;;;;10.79;16.31;99144.84;6269907;28;20526;-71
2023/12/09 08:53:58;;;;;;;18.98;7.65;;;;;;;10.66;16.56;99146.13;6270935;28;20044;-71
2023/12/09 08:56:59;;;;;;;18.67;8.38;;;;;;;10.39;16.86;99139.00;6270144;28;20045;-72
2023/12/09 09:00:08;;;;;;;22.23;9.02;;;;;;;10.26;16.68;99134.03;6270744;28;20049;-71
2023/12/09 09:03:09;;;;;;;19.45;8.23;;;;;;;9.64;16.47;99139.19;6270375;28;20055;-70
2023/12/09 09:06:13;;;;;;;15.05;8.00;;;;;;;9.09;16.76;99145.75;6270663;28;20502;-71
2023/12/09 09:09:19;;;;;;;18.90;8.02;;;;;;;8.85;16.95;99136.66;6270538;28;20494;-71
2023/12/09 09:12:26;;;;;;;22.20;9.93;;;;;;;8.54;17.00;99138.16;6270017;28;20049;-71
2023/12/09 09:15:32;;;;;;;21.20;9.13;;;;;;;8.38;17.23;99136.72;6270486;28;20045;-71
2023/12/09 09:18:36;;;;;;;23.25;8.75;;;;;;;7.88;17.07;99141.16;6270024;28;20143;-71
2023/12/09 09:21:43;;;;;;;18.92;8.02;;;;;;;7.51;17.01;99141.78;6270241;28;20088;-71
2023/12/09 09:24:48;;;;;;;19.88;8.35;;;;;;;7.36;17.40;99137.66;6269513;28;20045;-71
2023/12/09 09:27:49;;;;;;;18.80;7.68;;;;;;;7.46;17.10;99133.13;6269665;28;20049;-71
2023/12/09 09:30:53;;;;;;;25.63;12.45;;;;;;;7.55;17.10;99140.81;6269912;28;20418;-71
2023/12/09 09:33:58;;;;;;;21.00;9.55;;;;;;;7.31;17.11;99128.13;6270060;28;20051;-71
2023/12/09 09:37:02;;;;;;;12.52;7.78;;;;;;;6.90;16.79;99124.34;6269748;28;20044;-72
2023/12/09 09:40:06;;;;;;;16.73;7.95;;;;;;;6.44;17.20;99133.69;6269907;28;20453;-71
2023/12/09 09:43:20;;;;;;;15.45;7.57;;;;;;;6.15;16.79;99136.63;6269427;28;20049;-72
2023/12/09 09:46:28;;;;;;;18.33;9.07;;;;;;;6.00;17.56;99147.22;6269382;28;20399;-71
2023/12/09 09:49:37;;;;;;;20.20;9.13;;;;;;;5.60;17.41;99147.56;6269547;28;20502;-71
2023/12/09 09:52:44;;;;;;;20.63;8.75;;;;;;;5.54;17.70;99152.84;6268885;28;20564;-72
2023/12/09 09:55:46;;;;;;;20.85;9.55;;;;;;;5.38;18.04;99150.38;6283272;28;20508;-71
2023/12/09 09:58:50;;;;;;;24.25;13.18;;;;;;;5.08;18.08;99147.97;6293352;28;20417;-71
2023/12/09 10:01:57;;;;;;;20.42;10.45;;;;;;;4.20;18.21;99148.38;6294804;28;20045;-70
2023/12/09 10:05:03;;;;;;;22.70;9.68;;;;;;;1.10;19.93;99128.34;6294545;28;20052;-71
2023/12/09 10:08:05;;;;;;;23.38;9.02;;;;;;;-2.05;22.33;99135.59;6293648;28;20044;-71
2023/12/09 10:11:08;;;;;;;16.60;7.07;;;;;;;-4.19;24.82;99137.00;6293467;28;20145;-70
2023/12/09 10:14:15;;;;;;;20.55;8.25;;;;;;;-5.93;26.11;99132.09;6294270;28;20040;-71
2023/12/09 10:17:22;;;;;;;17.63;8.20;;;;;;;-7.21;27.76;99135.66;6294310;28;20048;-69
2023/12/09 10:20:29;;;;;;;19.23;6.80;;;;;;;-8.15;28.48;99129.91;6294246;28;20462;-71
2023/12/09 10:23:36;;;;;;;18.98;7.18;;;;;;;-8.71;28.90;99138.44;6276484;28;20047;-69
2023/12/09 10:26:40;;;;;;;20.08;8.35;;;;;;;-9.37;29.57;99132.69;6293870;28;20044;-71
2023/12/09 10:29:46;;;;;;;26.00;8.93;;;;;;;-9.96;29.99;99139.03;6292620;28;20048;-71
2023/12/09 10:32:48;;;;;;;18.02;8.27;;;;;;;-10.39;30.40;99151.19;6293353;28;20051;-70
2023/12/09 10:35:51;;;;;;;19.92;9.15;;;;;;;-10.77;30.79;99151.66;6293629;28;20044;-70
2023/12/09 10:38:59;;;;;;;32.78;13.07;;;;;;;-11.18;31.33;99142.56;6293171;28;20733;-71
2023/12/09 10:42:04;;;;;;;29.52;20.20;;;;;;;-11.40;31.94;99151.53;6293420;28;20052;-70
2023/12/09 10:45:08;;;;;;;32.15;14.77;;;;;;;-11.81;32.06;99147.44;6291500;28;20068;-70
2023/12/09 10:48:12;;;;;;;29.63;12.50;;;;;;;-12.17;32.57;99145.25;6293950;28;20041;-70
2023/12/09 10:51:17;;;;;;;28.17;13.93;;;;;;;-12.52;33.15;99144.00;6291453;28;20541;-71
2023/12/09 10:54:21;;;;;;;25.58;11.25;;;;;;;-12.71;32.94;99149.56;6285376;28;20045;-69
2023/12/09 10:57:27;;;;;;;28.40;12.55;;;;;;;-12.86;33.47;99154.56;6268828;28;20067;-71
2023/12/09 11:00:32;;;;;;;30.98;12.32;;;;;;;-13.08;34.05;99156.50;6268568;28;20057;-70
2023/12/09 11:03:35;;;;;;;27.07;12.60;;;;;;;-13.38;33.75;99147.06;6268669;28;20041;-70
2023/12/09 11:06:40;;;;;;;30.35;11.75;;;;;;;-13.59;34.20;99151.59;6267662;28;20053;-70
2023/12/09 11:09:43;;;;;;;34.35;15.02;;;;;;;-13.80;34.97;99165.38;6267903;28;20048;-70
2023/12/09 11:12:50;;;;;;;37.13;14.68;;;;;;;-14.06;35.20;99158.56;6254243;28;20139;-70
2023/12/09 11:16:19;;;;;;;26.25;12.40;;;;;;;-14.33;36.53;99157.53;6273754;28;20044;-71
2023/12/09 11:19:24;;;;;;;25.00;12.82;;;;;;;-14.52;35.92;99155.41;6258885;28;20056;-71
2023/12/09 11:22:28;;;;;;;32.22;13.45;;;;;;;-14.82;35.84;99159.22;6273108;28;20036;-70
2023/12/09 11:25:30;;;;;;;31.20;12.40;;;;;;;-15.06;36.40;99158.34;6272959;28;20032;-71
2023/12/09 11:28:34;;;;;;;33.20;13.90;;;;;;;-15.28;36.95;99164.41;6271869;28;20053;-70
2023/12/09 11:31:49;;;;;;;33.88;16.33;;;;;;;-15.47;38.06;99159.66;6272962;28;20469;-70
2023/12/09 11:34:50;;;;;;;65.43;28.80;;;;;;;-15.66;37.27;99167.50;6272237;28;20052;-71
2023/12/09 11:37:57;;;;;;;82.43;36.05;;;;;;;-15.88;37.84;99162.56;6273001;28;20044;-71
2023/12/09 11:41:06;;;;;;;100.97;43.83;;;;;;;-16.09;38.03;99158.41;6272906;28;20041;-70
2023/12/09 11:44:11;;;;;;;93.63;43.33;;;;;;;-16.35;38.93;99162.38;6272599;28;20044;-71
2023/12/09 11:47:17;;;;;;;128.88;54.40;;;;;;;-16.55;39.34;99167.53;6272644;28;20041;-70
2023/12/09 11:50:18;;;;;;;117.25;49.28;;;;;;;-16.77;39.57;99170.91;6271510;28;20049;-71
2023/12/09 11:53:22;;;;;;;88.97;39.05;;;;;;;-17.08;39.80;99161.72;6253915;28;20107;-70
2023/12/09 11:56:26;;;;;;;71.00;33.90;;;;;;;-17.23;40.03;99162.25;6272485;28;20067;-71
2023/12/09 11:59:30;;;;;;;53.92;28.17;;;;;;;-17.42;40.30;99163.19;6271196;28;20041;-70
2023/12/09 12:02:43;;;;;;;58.03;24.08;;;;;;;-17.64;40.80;99155.53;6272137;28;20041;-70
2023/12/09 12:05:47;;;;;;;64.95;29.48;;;;;;;-17.73;40.82;99160.69;6270785;28;20531;-70
2023/12/09 12:08:50;;;;;;;78.13;37.03;;;;;;;-17.88;41.32;99155.34;6271264;28;20049;-71
2023/12/09 12:11:53;;;;;;;;;;;;;;;-17.94;40.99;99164.91;6271362;28;20135;-71
2023/12/09 12:14:57;;;;;;;90.68;35.05;;;;;;;-18.20;40.71;99155.19;6254594;28;19921;-70
2023/12/09 12:18:00;;;;;;;103.97;44.53;;;;;;;-18.37;41.50;99153.75;6271376;28;20040;-70
2023/12/09 12:21:03;;;;;;;119.38;46.05;;;;;;;-18.49;41.67;99145.22;6270970;28;20048;-70
2023/12/09 12:24:06;;;;;;;103.43;44.90;;;;;;;-18.41;41.82;99176.88;6270091;28;20052;-70
2023/12/09 12:27:10;;;;;;;106.80;43.03;;;;;;;-18.49;42.44;99171.19;6270839;28;20053;-70
2023/12/09 12:30:16;;;;;;;122.68;43.08;;;;;;;-18.70;41.98;99164.38;6271920;28;20049;-70
2023/12/09 12:33:24;;;;;;;126.95;45.30;;;;;;;-18.76;41.97;99174.81;6271365;28;20143;-71
2023/12/09 12:36:27;;;;;;;117.32;45.47;;;;;;;-18.76;42.79;99178.94;6271107;28;20049;-71
2023/12/09 12:39:29;;;;;;;155.27;63.67;;;;;;;-18.81;42.59;99181.94;6270558;28;20049;-70
2023/12/09 12:42:31;;;;;;;166.52;68.60;;;;;;;-18.94;43.19;99168.19;6270386;28;20060;-70
2023/12/09 12:45:39;;;;;;;165.68;61.38;;;;;;;-19.04;43.18;99179.97;6271171;28;20061;-70
2023/12/09 12:48:40;;;;;;;116.18;49.58;;;;;;;-19.15;43.57;99182.28;6270421;28;20048;-71
2023/12/09 12:51:44;;;;;;;127.25;48.90;;;;;;;-19.27;43.39;99177.09;6271073;28;20044;-70
2023/12/09 12:54:51;;;;;;;108.32;46.95;;;;;;;-19.40;43.18;99176.75;6270887;28;20418;-70
2023/12/09 12:57:56;;;;;;;92.88;39.25;;;;;;;-19.53;43.05;99183.19;6270138;28;20414;-70
2023/12/09 13:01:01;;;;;;;84.28;35.00;;;;;;;-19.62;43.95;99184.88;6270065;28;20068;-72
2023/12/09 13:04:03;;;;;;;88.28;36.90;;;;;;;-19.74;44.03;99184.69;6270045;28;20204;-71
2023/12/09 13:07:08;;;;;;;87.55;34.03;;;;;;;-19.67;44.20;99188.63;6270525;28;20041;-71
2023/12/09 13:10:12;;;;;;;79.60;33.67;;;;;;;-19.60;44.45;99183.38;6270678;28;20051;-69
2023/12/09 13:13:13;;;;;;;110.40;38.60;;;;;;;-19.49;43.82;99192.75;6270656;28;20059;-70
2023/12/09 13:16:18;;;;;;;150.65;54.22;;;;;;;-19.46;43.34;99178.72;6270482;28;20037;-71
2023/12/09 13:19:19;;;;;;;157.57;61.60;;;;;;;-19.45;43.49;99175.47;6269358;28;20056;-70
2023/12/09 13:22:23;;;;;;;177.13;64.55;;;;;;;-19.37;43.65;99189.56;6269797;28;20048;-70
2023/12/09 13:25:27;;;;;;;160.10;59.35;;;;;;;-19.46;43.84;99188.75;6269217;28;20167;-70
2023/12/09 13:28:31;;;;;;;137.95;58.22;;;;;;;-19.61;43.40;99194.19;6269410;28;20041;-71
2023/12/09 13:31:38;;;;;;;140.48;54.78;;;;;;;-19.74;43.92;99191.34;6270071;28;20581;-71
2023/12/09 13:34:42;;;;;;;137.40;54.22;;;;;;;-19.93;44.49;99178.78;6269557;28;20040;-71
2023/12/09 13:37:45;;;;;;;116.70;45.63;;;;;;;-19.98;44.37;99192.50;6269814;28;20052;-70
2023/12/09 13:40:46;;;;;;;115.65;45.85;;;;;;;-20.03;44.95;99187.09;6269316;28;20053;-71
2023/12/09 13:43:49;;;;;;;105.13;38.80;;;;;;;-20.05;44.68;99198.59;6269454;28;20048;-70
2023/12/09 13:46:53;;;;;;;83.50;34.67;;;;;;;-20.10;44.92;99192.28;6269511;28;20044;-70
2023/12/09 13:49:54;;;;;;;66.13;28.15;;;;;;;-20.16;44.88;99196.75;6268974;28;20060;-69
2023/12/09 13:53:02;;;;;;;66.97;27.80;;;;;;;-20.19;44.32;99193.97;6269354;28;20045;-71
2023/12/09 13:56:06;;;;;;;68.18;26.60;;;;;;;-20.25;45.16;99188.41;6269811;28;20053;-70
2023/12/09 13:59:13;;;;;;;75.90;29.52;;;;;;;-20.17;44.72;99202.50;6269532;28;20041;-69
2023/12/09 14:02:22;;;;;;;65.53;27.58;;;;;;;-20.11;45.05;99207.19;6269077;28;20045;-70
2023/12/09 14:05:29;;;;;;;120.93;47.53;;;;;;;-20.07;44.81;99202.56;6269302;28;20048;-70
2023/12/09 14:08:31;;;;;;;60.13;27.60;;;;;;;-20.05;45.33;99203.59;6268148;28;20051;-71